sensor_id;sensor_type;location;lat;lon;timestamp;temperature;humidity
42905;DHT22;28550;51.228;4.528;2022-12-24T00:10:25;11.40;93.20
42905;DHT22;28550;51.228;4.528;2022-12-24T00:12:50;11.40;93.00
42905;DHT22;28550;51.228;4.528;2022-12-24T00:15:16;11.30;93.00
42905;DHT22;28550;51.228;4.528;2022-12-24T00:17:42;11.30;92.40
42905;DHT22;28550;51.228;4.528;2022-12-24T00:20:08;11.40;93.10
42905;DHT22;28550;51.228;4.528;2022-12-24T00:22:34;11.30;94.10
42905;DHT22;28550;51.228;4.528;2022-12-24T00:24:59;11.30;93.30
42905;DHT22;28550;51.228;4.528;2022-12-24T00:27:28;11.20;93.20
42905;DHT22;28550;51.228;4.528;2022-12-24T00:29:53;11.20;94.10
42905;DHT22;28550;51.228;4.528;2022-12-24T00:32:19;11.00;95.60
42905;DHT22;28550;51.228;4.528;2022-12-24T00:34:45;10.90;95.30
42905;DHT22;28550;51.228;4.528;2022-12-24T00:37:11;10.90;96.80
42905;DHT22;28550;51.228;4.528;2022-12-24T00:39:39;10.90;96.30
42905;DHT22;28550;51.228;4.528;2022-12-24T00:42:06;11.00;95.90
42905;DHT22;28550;51.228;4.528;2022-12-24T00:44:32;11.10;94.80
42905;DHT22;28550;51.228;4.528;2022-12-24T00:50:16;11.20;96.30
42905;DHT22;28550;51.228;4.528;2022-12-24T00:53:04;11.20;96.00
42905;DHT22;28550;51.228;4.528;2022-12-24T00:55:29;11.20;94.30
42905;DHT22;28550;51.228;4.528;2022-12-24T00:57:58;11.30;95.10
42905;DHT22;28550;51.228;4.528;2022-12-24T01:00:26;11.40;93.90
42905;DHT22;28550;51.228;4.528;2022-12-24T01:02:52;11.30;93.10
42905;DHT22;28550;51.228;4.528;2022-12-24T01:05:20;11.40;93.80
42905;DHT22;28550;51.228;4.528;2022-12-24T01:07:48;11.40;93.20
42905;DHT22;28550;51.228;4.528;2022-12-24T01:10:17;11.50;91.40
42905;DHT22;28550;51.228;4.528;2022-12-24T01:12:44;11.40;92.50
42905;DHT22;28550;51.228;4.528;2022-12-24T01:15:16;11.40;92.20
42905;DHT22;28550;51.228;4.528;2022-12-24T01:17:42;11.40;91.60
42905;DHT22;28550;51.228;4.528;2022-12-24T01:20:13;11.40;92.50
42905;DHT22;28550;51.228;4.528;2022-12-24T01:22:41;11.50;92.30
42905;DHT22;28550;51.228;4.528;2022-12-24T01:25:09;11.40;91.50
42905;DHT22;28550;51.228;4.528;2022-12-24T01:27:37;11.30;94.20
42905;DHT22;28550;51.228;4.528;2022-12-24T01:30:05;11.30;94.00
42905;DHT22;28550;51.228;4.528;2022-12-24T01:32:35;11.40;94.20
42905;DHT22;28550;51.228;4.528;2022-12-24T01:35:10;11.40;94.80
42905;DHT22;28550;51.228;4.528;2022-12-24T01:37:37;11.30;96.00
42905;DHT22;28550;51.228;4.528;2022-12-24T01:40:10;11.40;96.60
42905;DHT22;28550;51.228;4.528;2022-12-24T01:42:59;11.40;96.60
42905;DHT22;28550;51.228;4.528;2022-12-24T01:49:01;11.40;97.00
42905;DHT22;28550;51.228;4.528;2022-12-24T01:51:41;11.40;97.20
42905;DHT22;28550;51.228;4.528;2022-12-24T01:54:25;11.50;97.00
42905;DHT22;28550;51.228;4.528;2022-12-24T01:57:04;11.60;95.50
42905;DHT22;28550;51.228;4.528;2022-12-24T01:59:33;11.40;96.20
42905;DHT22;28550;51.228;4.528;2022-12-24T02:02:06;11.50;96.20
42905;DHT22;28550;51.228;4.528;2022-12-24T02:05:05;11.40;95.80
42905;DHT22;28550;51.228;4.528;2022-12-24T02:07:44;11.40;97.00
42905;DHT22;28550;51.228;4.528;2022-12-24T02:10:22;11.40;96.00
42905;DHT22;28550;51.228;4.528;2022-12-24T02:12:49;11.40;96.80
42905;DHT22;28550;51.228;4.528;2022-12-24T02:15:18;11.40;97.40
42905;DHT22;28550;51.228;4.528;2022-12-24T02:18:06;11.40;97.70
42905;DHT22;28550;51.228;4.528;2022-12-24T02:35:17;11.20;99.90
42905;DHT22;28550;51.228;4.528;2022-12-24T02:37:52;11.30;99.90
42905;DHT22;28550;51.228;4.528;2022-12-24T02:40:28;11.30;99.90
42905;DHT22;28550;51.228;4.528;2022-12-24T02:43:01;11.30;99.90
42905;DHT22;28550;51.228;4.528;2022-12-24T02:45:31;11.30;99.90
42905;DHT22;28550;51.228;4.528;2022-12-24T02:47:58;11.40;99.90
42905;DHT22;28550;51.228;4.528;2022-12-24T02:50:25;11.30;99.90
42905;DHT22;28550;51.228;4.528;2022-12-24T02:52:51;11.30;99.90
42905;DHT22;28550;51.228;4.528;2022-12-24T02:58:00;11.30;99.90
42905;DHT22;28550;51.228;4.528;2022-12-24T03:00:52;11.50;99.90
42905;DHT22;28550;51.228;4.528;2022-12-24T03:06:59;11.40;99.90
42905;DHT22;28550;51.228;4.528;2022-12-24T03:09:31;11.40;99.90
42905;DHT22;28550;51.228;4.528;2022-12-24T03:12:21;11.40;99.90
42905;DHT22;28550;51.228;4.528;2022-12-24T03:14:49;11.20;99.90
42905;DHT22;28550;51.228;4.528;2022-12-24T03:17:17;11.20;99.90
42905;DHT22;28550;51.228;4.528;2022-12-24T03:19:44;11.20;99.90
42905;DHT22;28550;51.228;4.528;2022-12-24T03:22:12;11.20;99.90
42905;DHT22;28550;51.228;4.528;2022-12-24T03:24:39;11.20;99.90
42905;DHT22;28550;51.228;4.528;2022-12-24T03:27:10;11.20;99.90
42905;DHT22;28550;51.228;4.528;2022-12-24T03:29:39;11.30;99.90
42905;DHT22;28550;51.228;4.528;2022-12-24T03:32:07;11.30;99.40
42905;DHT22;28550;51.228;4.528;2022-12-24T03:34:33;11.40;98.50
42905;DHT22;28550;51.228;4.528;2022-12-24T03:37:00;11.30;98.70
42905;DHT22;28550;51.228;4.528;2022-12-24T03:39:27;11.30;98.00
42905;DHT22;28550;51.228;4.528;2022-12-24T03:41:53;11.40;98.20
42905;DHT22;28550;51.228;4.528;2022-12-24T03:44:18;11.40;98.00
42905;DHT22;28550;51.228;4.528;2022-12-24T03:46:44;11.50;97.20
42905;DHT22;28550;51.228;4.528;2022-12-24T03:49:13;11.50;97.50
42905;DHT22;28550;51.228;4.528;2022-12-24T03:51:41;11.50;95.80
42905;DHT22;28550;51.228;4.528;2022-12-24T03:54:06;11.50;96.50
42905;DHT22;28550;51.228;4.528;2022-12-24T03:56:34;11.60;96.00
42905;DHT22;28550;51.228;4.528;2022-12-24T03:59:07;11.60;95.60
42905;DHT22;28550;51.228;4.528;2022-12-24T04:01:35;11.50;95.60
42905;DHT22;28550;51.228;4.528;2022-12-24T04:04:01;11.50;96.00
42905;DHT22;28550;51.228;4.528;2022-12-24T04:06:27;11.60;94.00
42905;DHT22;28550;51.228;4.528;2022-12-24T04:08:54;11.60;95.20
42905;DHT22;28550;51.228;4.528;2022-12-24T04:11:20;11.60;94.70
42905;DHT22;28550;51.228;4.528;2022-12-24T04:13:46;11.60;94.90
42905;DHT22;28550;51.228;4.528;2022-12-24T04:16:15;11.70;94.10
42905;DHT22;28550;51.228;4.528;2022-12-24T04:18:42;11.60;95.80
42905;DHT22;28550;51.228;4.528;2022-12-24T04:21:09;11.60;94.50
42905;DHT22;28550;51.228;4.528;2022-12-24T04:23:37;11.60;94.60
42905;DHT22;28550;51.228;4.528;2022-12-24T04:26:06;11.60;94.70
42905;DHT22;28550;51.228;4.528;2022-12-24T04:28:34;11.70;94.60
42905;DHT22;28550;51.228;4.528;2022-12-24T04:31:03;11.60;94.90
42905;DHT22;28550;51.228;4.528;2022-12-24T04:33:30;11.60;95.30
42905;DHT22;28550;51.228;4.528;2022-12-24T04:35:57;11.50;96.50
42905;DHT22;28550;51.228;4.528;2022-12-24T04:38:24;11.50;96.30
42905;DHT22;28550;51.228;4.528;2022-12-24T04:41:12;11.50;96.10
42905;DHT22;28550;51.228;4.528;2022-12-24T04:43:38;11.50;97.30
42905;DHT22;28550;51.228;4.528;2022-12-24T04:46:12;11.50;96.30
42905;DHT22;28550;51.228;4.528;2022-12-24T04:48:44;11.50;97.10
42905;DHT22;28550;51.228;4.528;2022-12-24T04:51:12;11.50;96.80
42905;DHT22;28550;51.228;4.528;2022-12-24T04:53:38;11.40;96.10
42905;DHT22;28550;51.228;4.528;2022-12-24T04:56:18;11.50;96.50
42905;DHT22;28550;51.228;4.528;2022-12-24T04:58:46;11.40;96.60
42905;DHT22;28550;51.228;4.528;2022-12-24T05:01:16;11.40;96.70
42905;DHT22;28550;51.228;4.528;2022-12-24T05:03:43;11.30;97.30
42905;DHT22;28550;51.228;4.528;2022-12-24T05:06:16;11.30;96.40
42905;DHT22;28550;51.228;4.528;2022-12-24T05:08:42;11.30;97.40
42905;DHT22;28550;51.228;4.528;2022-12-24T05:11:08;11.20;97.60
42905;DHT22;28550;51.228;4.528;2022-12-24T05:13:34;11.20;97.30
42905;DHT22;28550;51.228;4.528;2022-12-24T05:16:00;11.20;97.40
42905;DHT22;28550;51.228;4.528;2022-12-24T05:18:26;11.20;96.30
42905;DHT22;28550;51.228;4.528;2022-12-24T05:20:52;11.10;96.90
42905;DHT22;28550;51.228;4.528;2022-12-24T05:23:23;11.10;97.10
42905;DHT22;28550;51.228;4.528;2022-12-24T05:26:16;11.00;97.10
42905;DHT22;28550;51.228;4.528;2022-12-24T05:28:54;11.00;96.90
42905;DHT22;28550;51.228;4.528;2022-12-24T05:31:23;11.00;97.70
42905;DHT22;28550;51.228;4.528;2022-12-24T05:33:49;10.90;97.80
42905;DHT22;28550;51.228;4.528;2022-12-24T05:36:15;10.90;98.70
42905;DHT22;28550;51.228;4.528;2022-12-24T05:38:41;10.80;98.30
42905;DHT22;28550;51.228;4.528;2022-12-24T05:41:07;10.80;98.30
42905;DHT22;28550;51.228;4.528;2022-12-24T05:43:35;10.70;99.30
42905;DHT22;28550;51.228;4.528;2022-12-24T05:46:13;10.80;99.10
42905;DHT22;28550;51.228;4.528;2022-12-24T05:48:39;10.70;99.50
42905;DHT22;28550;51.228;4.528;2022-12-24T05:51:07;10.70;98.90
42905;DHT22;28550;51.228;4.528;2022-12-24T05:53:35;10.70;99.70
42905;DHT22;28550;51.228;4.528;2022-12-24T05:56:27;10.60;99.10
42905;DHT22;28550;51.228;4.528;2022-12-24T05:59:03;10.60;99.50
42905;DHT22;28550;51.228;4.528;2022-12-24T06:01:37;10.60;99.50
42905;DHT22;28550;51.228;4.528;2022-12-24T06:04:11;10.60;99.90
42905;DHT22;28550;51.228;4.528;2022-12-24T06:06:37;10.60;99.40
42905;DHT22;28550;51.228;4.528;2022-12-24T06:09:05;10.70;99.90
42905;DHT22;28550;51.228;4.528;2022-12-24T06:11:43;10.70;99.90
42905;DHT22;28550;51.228;4.528;2022-12-24T06:14:12;10.70;99.80
42905;DHT22;28550;51.228;4.528;2022-12-24T06:16:39;10.70;99.00
42905;DHT22;28550;51.228;4.528;2022-12-24T06:19:15;10.70;99.30
42905;DHT22;28550;51.228;4.528;2022-12-24T06:21:44;10.70;99.60
42905;DHT22;28550;51.228;4.528;2022-12-24T06:24:26;10.80;99.90
42905;DHT22;28550;51.228;4.528;2022-12-24T06:27:14;10.70;99.90
42905;DHT22;28550;51.228;4.528;2022-12-24T06:29:45;10.80;99.90
42905;DHT22;28550;51.228;4.528;2022-12-24T06:32:14;10.90;99.40
42905;DHT22;28550;51.228;4.528;2022-12-24T06:34:42;11.00;98.60
42905;DHT22;28550;51.228;4.528;2022-12-24T06:37:12;10.90;98.40
42905;DHT22;28550;51.228;4.528;2022-12-24T06:39:45;10.90;97.60
42905;DHT22;28550;51.228;4.528;2022-12-24T06:42:22;11.00;97.70
42905;DHT22;28550;51.228;4.528;2022-12-24T06:45:03;10.80;98.80
42905;DHT22;28550;51.228;4.528;2022-12-24T06:47:35;10.80;98.90
42905;DHT22;28550;51.228;4.528;2022-12-24T06:50:01;10.70;98.50
42905;DHT22;28550;51.228;4.528;2022-12-24T06:52:28;10.70;99.90
42905;DHT22;28550;51.228;4.528;2022-12-24T06:55:10;10.80;99.10
42905;DHT22;28550;51.228;4.528;2022-12-24T06:57:39;10.80;99.70
42905;DHT22;28550;51.228;4.528;2022-12-24T07:00:11;10.80;98.80
42905;DHT22;28550;51.228;4.528;2022-12-24T07:02:43;10.70;99.90
42905;DHT22;28550;51.228;4.528;2022-12-24T07:05:13;10.70;99.90
42905;DHT22;28550;51.228;4.528;2022-12-24T07:07:42;10.70;99.90
42905;DHT22;28550;51.228;4.528;2022-12-24T07:10:13;10.70;99.90
42905;DHT22;28550;51.228;4.528;2022-12-24T07:12:52;10.70;99.90
42905;DHT22;28550;51.228;4.528;2022-12-24T07:15:17;10.70;99.90
42905;DHT22;28550;51.228;4.528;2022-12-24T07:17:53;10.70;99.90
42905;DHT22;28550;51.228;4.528;2022-12-24T07:20:25;10.70;99.90
42905;DHT22;28550;51.228;4.528;2022-12-24T07:22:53;10.60;99.90
42905;DHT22;28550;51.228;4.528;2022-12-24T07:25:22;10.60;99.90
42905;DHT22;28550;51.228;4.528;2022-12-24T07:27:49;10.60;99.90
42905;DHT22;28550;51.228;4.528;2022-12-24T07:30:18;10.60;99.90
42905;DHT22;28550;51.228;4.528;2022-12-24T07:32:55;10.70;99.90
42905;DHT22;28550;51.228;4.528;2022-12-24T07:35:22;10.60;99.90
42905;DHT22;28550;51.228;4.528;2022-12-24T07:37:58;10.70;99.90
42905;DHT22;28550;51.228;4.528;2022-12-24T07:40:29;10.70;99.90
42905;DHT22;28550;51.228;4.528;2022-12-24T07:42:55;10.70;99.90
42905;DHT22;28550;51.228;4.528;2022-12-24T07:45:24;10.70;99.90
42905;DHT22;28550;51.228;4.528;2022-12-24T07:47:52;10.70;99.90
42905;DHT22;28550;51.228;4.528;2022-12-24T07:50:18;10.80;99.90
42905;DHT22;28550;51.228;4.528;2022-12-24T07:52:44;10.80;99.90
42905;DHT22;28550;51.228;4.528;2022-12-24T07:55:11;10.90;99.90
42905;DHT22;28550;51.228;4.528;2022-12-24T07:57:38;10.80;99.90
42905;DHT22;28550;51.228;4.528;2022-12-24T08:00:05;10.80;99.90
42905;DHT22;28550;51.228;4.528;2022-12-24T08:02:39;10.80;99.90
42905;DHT22;28550;51.228;4.528;2022-12-24T08:05:06;10.70;99.90
42905;DHT22;28550;51.228;4.528;2022-12-24T08:07:34;10.70;99.90
42905;DHT22;28550;51.228;4.528;2022-12-24T08:10:00;10.70;99.90
42905;DHT22;28550;51.228;4.528;2022-12-24T08:12:26;10.80;99.90
42905;DHT22;28550;51.228;4.528;2022-12-24T08:14:55;10.90;99.90
42905;DHT22;28550;51.228;4.528;2022-12-24T08:17:21;10.80;99.90
42905;DHT22;28550;51.228;4.528;2022-12-24T08:19:49;10.80;99.90
42905;DHT22;28550;51.228;4.528;2022-12-24T08:22:16;10.80;99.90
42905;DHT22;28550;51.228;4.528;2022-12-24T08:24:47;10.90;99.90
42905;DHT22;28550;51.228;4.528;2022-12-24T08:27:13;10.80;99.90
42905;DHT22;28550;51.228;4.528;2022-12-24T08:29:39;10.90;99.90
42905;DHT22;28550;51.228;4.528;2022-12-24T08:32:06;11.00;99.80
42905;DHT22;28550;51.228;4.528;2022-12-24T08:34:32;11.00;98.30
42905;DHT22;28550;51.228;4.528;2022-12-24T08:37:07;10.90;98.80
42905;DHT22;28550;51.228;4.528;2022-12-24T08:39:36;10.90;98.20
42905;DHT22;28550;51.228;4.528;2022-12-24T08:42:04;11.00;98.60
42905;DHT22;28550;51.228;4.528;2022-12-24T08:44:30;10.90;98.70
42905;DHT22;28550;51.228;4.528;2022-12-24T08:46:57;11.00;98.60
42905;DHT22;28550;51.228;4.528;2022-12-24T08:49:23;11.00;97.80
42905;DHT22;28550;51.228;4.528;2022-12-24T08:51:50;11.10;96.70
42905;DHT22;28550;51.228;4.528;2022-12-24T08:54:17;11.10;96.40
42905;DHT22;28550;51.228;4.528;2022-12-24T08:56:44;11.00;97.60
42905;DHT22;28550;51.228;4.528;2022-12-24T08:59:11;11.00;97.10
42905;DHT22;28550;51.228;4.528;2022-12-24T09:01:38;11.10;97.00
42905;DHT22;28550;51.228;4.528;2022-12-24T09:04:04;11.10;97.20
42905;DHT22;28550;51.228;4.528;2022-12-24T09:06:31;11.10;96.00
42905;DHT22;28550;51.228;4.528;2022-12-24T09:08:57;11.10;96.50
42905;DHT22;28550;51.228;4.528;2022-12-24T09:11:23;11.20;96.80
42905;DHT22;28550;51.228;4.528;2022-12-24T09:13:49;11.20;95.80
42905;DHT22;28550;51.228;4.528;2022-12-24T09:16:16;11.30;94.00
42905;DHT22;28550;51.228;4.528;2022-12-24T09:18:43;11.30;94.70
42905;DHT22;28550;51.228;4.528;2022-12-24T09:21:12;11.30;94.30
42905;DHT22;28550;51.228;4.528;2022-12-24T09:23:41;11.40;93.70
42905;DHT22;28550;51.228;4.528;2022-12-24T09:26:17;11.40;93.80
42905;DHT22;28550;51.228;4.528;2022-12-24T09:28:45;11.40;94.20
42905;DHT22;28550;51.228;4.528;2022-12-24T09:31:12;11.50;92.00
42905;DHT22;28550;51.228;4.528;2022-12-24T09:33:39;11.60;91.20
42905;DHT22;28550;51.228;4.528;2022-12-24T09:36:06;11.60;91.80
42905;DHT22;28550;51.228;4.528;2022-12-24T09:38:33;11.60;92.10
42905;DHT22;28550;51.228;4.528;2022-12-24T09:40:59;11.70;90.50
42905;DHT22;28550;51.228;4.528;2022-12-24T09:43:28;11.70;88.40
42905;DHT22;28550;51.228;4.528;2022-12-24T09:48:29;11.80;87.30
42905;DHT22;28550;51.228;4.528;2022-12-24T09:51:09;11.80;86.90
42905;DHT22;28550;51.228;4.528;2022-12-24T09:53:47;11.80;90.00
42905;DHT22;28550;51.228;4.528;2022-12-24T09:56:40;11.80;88.40
42905;DHT22;28550;51.228;4.528;2022-12-24T09:59:13;11.80;89.00
42905;DHT22;28550;51.228;4.528;2022-12-24T10:01:39;11.80;88.80
42905;DHT22;28550;51.228;4.528;2022-12-24T10:04:14;11.90;83.70
42905;DHT22;28550;51.228;4.528;2022-12-24T10:12:20;11.90;85.20
42905;DHT22;28550;51.228;4.528;2022-12-24T10:14:57;12.00;84.30
42905;DHT22;28550;51.228;4.528;2022-12-24T10:23:20;12.00;78.00
42905;DHT22;28550;51.228;4.528;2022-12-24T10:26:14;12.00;80.80
42905;DHT22;28550;51.228;4.528;2022-12-24T10:29:19;11.90;87.10
42905;DHT22;28550;51.228;4.528;2022-12-24T10:31:54;12.00;87.30
42905;DHT22;28550;51.228;4.528;2022-12-24T10:34:23;12.00;80.60
42905;DHT22;28550;51.228;4.528;2022-12-24T10:36:55;12.10;78.30
42905;DHT22;28550;51.228;4.528;2022-12-24T10:39:26;12.30;74.80
42905;DHT22;28550;51.228;4.528;2022-12-24T10:41:56;12.30;72.10
42905;DHT22;28550;51.228;4.528;2022-12-24T10:44:27;12.30;59.70
42905;DHT22;28550;51.228;4.528;2022-12-24T10:46:55;12.30;72.20
42905;DHT22;28550;51.228;4.528;2022-12-24T10:49:35;12.40;72.70
42905;DHT22;28550;51.228;4.528;2022-12-24T10:52:05;12.50;66.00
42905;DHT22;28550;51.228;4.528;2022-12-24T10:54:35;12.70;57.00
42905;DHT22;28550;51.228;4.528;2022-12-24T10:57:06;12.80;48.80
42905;DHT22;28550;51.228;4.528;2022-12-24T10:59:53;12.90;34.80
42905;DHT22;28550;51.228;4.528;2022-12-24T11:04:52;13.20;18.50
42905;DHT22;28550;51.228;4.528;2022-12-24T11:07:22;13.20;26.70
42905;DHT22;28550;51.228;4.528;2022-12-24T11:09:58;13.20;25.60
42905;DHT22;28550;51.228;4.528;2022-12-24T11:12:36;13.20;24.40
42905;DHT22;28550;51.228;4.528;2022-12-24T11:15:28;13.50;31.40
42905;DHT22;28550;51.228;4.528;2022-12-24T11:18:11;13.80;1.00
42905;DHT22;28550;51.228;4.528;2022-12-24T11:20:55;14.10;1.00
42905;DHT22;28550;51.228;4.528;2022-12-24T11:23:27;14.10;1.00
42905;DHT22;28550;51.228;4.528;2022-12-24T11:26:02;14.20;1.00
42905;DHT22;28550;51.228;4.528;2022-12-24T11:28:32;14.20;1.00
42905;DHT22;28550;51.228;4.528;2022-12-24T11:31:23;14.10;1.00
42905;DHT22;28550;51.228;4.528;2022-12-24T11:42:38;14.10;1.00
42905;DHT22;28550;51.228;4.528;2022-12-24T11:45:24;14.10;1.00
42905;DHT22;28550;51.228;4.528;2022-12-24T11:48:21;14.20;1.00
42905;DHT22;28550;51.228;4.528;2022-12-24T11:51:02;14.30;1.00
42905;DHT22;28550;51.228;4.528;2022-12-24T11:53:50;14.10;1.00
42905;DHT22;28550;51.228;4.528;2022-12-24T11:56:44;13.90;1.00
42905;DHT22;28550;51.228;4.528;2022-12-24T11:59:18;13.70;1.00
42905;DHT22;28550;51.228;4.528;2022-12-24T12:02:24;13.60;1.00
42905;DHT22;28550;51.228;4.528;2022-12-24T12:04:59;13.60;1.00
42905;DHT22;28550;51.228;4.528;2022-12-24T12:07:33;13.50;1.00
42905;DHT22;28550;51.228;4.528;2022-12-24T12:10:27;13.70;1.00
42905;DHT22;28550;51.228;4.528;2022-12-24T12:13:18;13.90;1.00
42905;DHT22;28550;51.228;4.528;2022-12-24T12:16:07;14.30;1.00
42905;DHT22;28550;51.228;4.528;2022-12-24T12:18:41;14.80;1.00
42905;DHT22;28550;51.228;4.528;2022-12-24T12:21:16;15.20;99.90
42905;DHT22;28550;51.228;4.528;2022-12-24T12:23:55;15.10;99.90
42905;DHT22;28550;51.228;4.528;2022-12-24T12:26:26;14.80;1.00
42905;DHT22;28550;51.228;4.528;2022-12-24T12:29:00;14.70;1.00
42905;DHT22;28550;51.228;4.528;2022-12-24T12:31:49;15.10;1.00
42905;DHT22;28550;51.228;4.528;2022-12-24T12:34:43;15.50;99.90
42905;DHT22;28550;51.228;4.528;2022-12-24T12:37:22;15.30;99.90
42905;DHT22;28550;51.228;4.528;2022-12-24T12:39:53;15.40;10.70
42905;DHT22;28550;51.228;4.528;2022-12-24T12:42:39;15.10;99.90
42905;DHT22;28550;51.228;4.528;2022-12-24T12:54:51;14.60;1.00
42905;DHT22;28550;51.228;4.528;2022-12-24T12:57:21;14.60;1.00
42905;DHT22;28550;51.228;4.528;2022-12-24T13:00:05;14.60;1.00
42905;DHT22;28550;51.228;4.528;2022-12-24T13:08:57;14.40;1.00
42905;DHT22;28550;51.228;4.528;2022-12-24T13:14:29;14.20;1.00
42905;DHT22;28550;51.228;4.528;2022-12-24T13:20:40;14.00;1.00
42905;DHT22;28550;51.228;4.528;2022-12-24T13:23:27;14.00;1.00
42905;DHT22;28550;51.228;4.528;2022-12-24T13:26:16;13.80;1.00
42905;DHT22;28550;51.228;4.528;2022-12-24T13:28:45;13.80;1.00
42905;DHT22;28550;51.228;4.528;2022-12-24T13:36:07;13.80;1.00
42905;DHT22;28550;51.228;4.528;2022-12-24T13:38:55;13.80;1.00
42905;DHT22;28550;51.228;4.528;2022-12-24T13:46:52;13.40;1.00
42905;DHT22;28550;51.228;4.528;2022-12-24T13:49:44;13.30;3.60
42905;DHT22;28550;51.228;4.528;2022-12-24T13:54:44;13.50;1.00
42905;DHT22;28550;51.228;4.528;2022-12-24T13:57:31;13.50;1.00
42905;DHT22;28550;51.228;4.528;2022-12-24T14:00:31;13.30;1.00
42905;DHT22;28550;51.228;4.528;2022-12-24T14:08:25;13.10;8.80
42905;DHT22;28550;51.228;4.528;2022-12-24T14:14:37;13.10;14.60
42905;DHT22;28550;51.228;4.528;2022-12-24T14:19:45;13.40;1.30
42905;DHT22;28550;51.228;4.528;2022-12-24T14:22:26;13.40;1.00
42905;DHT22;28550;51.228;4.528;2022-12-24T14:24:57;13.30;6.30
42905;DHT22;28550;51.228;4.528;2022-12-24T14:27:38;13.30;8.60
42905;DHT22;28550;51.228;4.528;2022-12-24T14:30:37;13.20;17.10
42905;DHT22;28550;51.228;4.528;2022-12-24T15:05:14;12.80;25.10
42905;DHT22;28550;51.228;4.528;2022-12-24T15:08:03;12.80;30.00
42905;DHT22;28550;51.228;4.528;2022-12-24T15:10:40;12.70;39.10
42905;DHT22;28550;51.228;4.528;2022-12-24T15:13:25;12.70;35.90
42905;DHT22;28550;51.228;4.528;2022-12-24T15:15:57;12.70;35.50
42905;DHT22;28550;51.228;4.528;2022-12-24T15:18:28;12.70;44.70
42905;DHT22;28550;51.228;4.528;2022-12-24T15:21:04;12.70;39.60
42905;DHT22;28550;51.228;4.528;2022-12-24T15:26:46;12.60;54.10
42905;DHT22;28550;51.228;4.528;2022-12-24T15:29:27;12.70;49.30
42905;DHT22;28550;51.228;4.528;2022-12-24T15:31:58;12.70;42.30
42905;DHT22;28550;51.228;4.528;2022-12-24T15:34:45;12.90;38.70
42905;DHT22;28550;51.228;4.528;2022-12-24T15:37:24;12.70;45.90
42905;DHT22;28550;51.228;4.528;2022-12-24T15:40:00;12.70;49.80
42905;DHT22;28550;51.228;4.528;2022-12-24T15:42:29;12.70;44.20
42905;DHT22;28550;51.228;4.528;2022-12-24T15:44:59;12.80;35.10
42905;DHT22;28550;51.228;4.528;2022-12-24T15:47:28;12.60;49.30
42905;DHT22;28550;51.228;4.528;2022-12-24T15:49:55;12.60;50.90
42905;DHT22;28550;51.228;4.528;2022-12-24T15:52:22;12.40;57.50
42905;DHT22;28550;51.228;4.528;2022-12-24T15:54:50;12.20;66.90
42905;DHT22;28550;51.228;4.528;2022-12-24T15:57:24;12.20;70.80
42905;DHT22;28550;51.228;4.528;2022-12-24T15:59:55;12.10;68.10
42905;DHT22;28550;51.228;4.528;2022-12-24T16:02:34;12.00;73.90
42905;DHT22;28550;51.228;4.528;2022-12-24T16:05:35;12.10;72.80
42905;DHT22;28550;51.228;4.528;2022-12-24T16:10:43;12.30;59.40
42905;DHT22;28550;51.228;4.528;2022-12-24T16:13:18;12.30;55.10
42905;DHT22;28550;51.228;4.528;2022-12-24T16:15:50;12.30;58.90
42905;DHT22;28550;51.228;4.528;2022-12-24T16:18:20;12.10;64.70
42905;DHT22;28550;51.228;4.528;2022-12-24T16:20:54;12.30;57.60
42905;DHT22;28550;51.228;4.528;2022-12-24T16:26:39;12.00;60.70
42905;DHT22;28550;51.228;4.528;2022-12-24T16:29:06;11.70;72.20
42905;DHT22;28550;51.228;4.528;2022-12-24T16:31:36;11.60;74.80
42905;DHT22;28550;51.228;4.528;2022-12-24T16:34:03;11.50;77.60
42905;DHT22;28550;51.228;4.528;2022-12-24T16:36:30;11.30;84.00
42905;DHT22;28550;51.228;4.528;2022-12-24T16:38:59;11.20;87.10
42905;DHT22;28550;51.228;4.528;2022-12-24T16:41:44;11.10;90.20
42905;DHT22;28550;51.228;4.528;2022-12-24T16:44:31;11.00;91.00
42905;DHT22;28550;51.228;4.528;2022-12-24T16:47:01;11.10;90.70
42905;DHT22;28550;51.228;4.528;2022-12-24T16:49:29;11.00;91.80
42905;DHT22;28550;51.228;4.528;2022-12-24T16:51:58;11.00;90.20
42905;DHT22;28550;51.228;4.528;2022-12-24T16:54:24;10.90;90.20
42905;DHT22;28550;51.228;4.528;2022-12-24T16:56:55;10.80;91.80
42905;DHT22;28550;51.228;4.528;2022-12-24T16:59:22;10.70;94.20
42905;DHT22;28550;51.228;4.528;2022-12-24T17:01:51;10.70;94.70
42905;DHT22;28550;51.228;4.528;2022-12-24T17:04:19;10.70;92.70
42905;DHT22;28550;51.228;4.528;2022-12-24T17:06:48;10.70;93.90
42905;DHT22;28550;51.228;4.528;2022-12-24T17:12:10;10.60;95.00
42905;DHT22;28550;51.228;4.528;2022-12-24T17:14:39;10.70;95.60
42905;DHT22;28550;51.228;4.528;2022-12-24T17:17:14;10.80;95.30
42905;DHT22;28550;51.228;4.528;2022-12-24T17:19:41;11.00;93.90
42905;DHT22;28550;51.228;4.528;2022-12-24T17:22:21;10.90;93.40
42905;DHT22;28550;51.228;4.528;2022-12-24T17:25:04;10.90;94.10
42905;DHT22;28550;51.228;4.528;2022-12-24T17:27:33;10.90;94.30
42905;DHT22;28550;51.228;4.528;2022-12-24T17:30:02;10.80;93.20
42905;DHT22;28550;51.228;4.528;2022-12-24T17:32:28;10.60;95.40
42905;DHT22;28550;51.228;4.528;2022-12-24T17:35:00;10.40;95.50
42905;DHT22;28550;51.228;4.528;2022-12-24T17:37:27;10.40;97.40
42905;DHT22;28550;51.228;4.528;2022-12-24T17:40:00;10.30;95.60
42905;DHT22;28550;51.228;4.528;2022-12-24T17:42:32;10.30;96.50
42905;DHT22;28550;51.228;4.528;2022-12-24T17:44:58;10.20;96.10
42905;DHT22;28550;51.228;4.528;2022-12-24T17:48:08;10.10;96.80
42905;DHT22;28550;51.228;4.528;2022-12-24T17:50:40;10.00;99.00
42905;DHT22;28550;51.228;4.528;2022-12-24T17:53:06;10.00;96.10
42905;DHT22;28550;51.228;4.528;2022-12-24T17:55:32;9.90;96.70
42905;DHT22;28550;51.228;4.528;2022-12-24T17:57:57;9.90;96.70
42905;DHT22;28550;51.228;4.528;2022-12-24T18:00:29;9.80;97.00
42905;DHT22;28550;51.228;4.528;2022-12-24T18:03:14;9.70;97.40
42905;DHT22;28550;51.228;4.528;2022-12-24T18:06:05;9.60;98.80
42905;DHT22;28550;51.228;4.528;2022-12-24T18:08:53;9.70;99.60
42905;DHT22;28550;51.228;4.528;2022-12-24T18:11:37;9.60;98.40
42905;DHT22;28550;51.228;4.528;2022-12-24T18:14:04;9.50;98.40
42905;DHT22;28550;51.228;4.528;2022-12-24T18:16:34;9.40;98.50
42905;DHT22;28550;51.228;4.528;2022-12-24T18:19:07;9.40;99.10
42905;DHT22;28550;51.228;4.528;2022-12-24T18:21:36;9.30;99.00
42905;DHT22;28550;51.228;4.528;2022-12-24T18:24:03;9.20;98.40
42905;DHT22;28550;51.228;4.528;2022-12-24T18:26:31;9.10;99.90
42905;DHT22;28550;51.228;4.528;2022-12-24T18:29:02;9.10;99.90
42905;DHT22;28550;51.228;4.528;2022-12-24T18:31:35;9.00;99.90
42905;DHT22;28550;51.228;4.528;2022-12-24T18:34:06;9.10;99.90
42905;DHT22;28550;51.228;4.528;2022-12-24T18:36:34;9.00;99.90
42905;DHT22;28550;51.228;4.528;2022-12-24T18:39:07;8.90;98.80